createdAt,value
2022-10-23T00:01:01.345Z,101414.22
2022-10-23T00:03:27.745Z,101412.03
2022-10-23T00:05:54.186Z,101425.00
2022-10-23T00:08:20.593Z,101413.41
2022-10-23T00:10:47.151Z,101421.81
2022-10-23T00:13:13.609Z,101415.63
2022-10-23T00:15:40.151Z,101419.53
2022-10-23T00:18:06.625Z,101411.88
2022-10-23T00:20:33.063Z,101410.97
2022-10-23T00:22:59.455Z,101415.03
2022-10-23T00:25:25.860Z,101412.78
2022-10-23T00:27:52.314Z,101415.03
2022-10-23T00:30:18.966Z,101416.66
2022-10-23T00:32:45.407Z,101424.38
2022-10-23T00:35:11.885Z,101420.97
2022-10-23T00:37:38.368Z,101407.91
2022-10-23T00:40:05.517Z,101412.22
2022-10-23T00:42:32.009Z,101416.78
2022-10-23T00:45:10.829Z,101412.72
2022-10-23T00:47:37.277Z,101414.31
2022-10-23T00:50:04.938Z,101402.16
2022-10-23T00:52:31.948Z,101407.50
2022-10-23T00:54:58.382Z,101404.44
2022-10-23T00:57:24.873Z,101402.19
2022-10-23T00:59:51.302Z,101404.84
2022-10-23T01:02:17.851Z,101389.66
2022-10-23T01:04:44.452Z,101398.75
2022-10-23T01:07:25.951Z,101402.19
2022-10-23T01:10:07.760Z,101408.28
2022-10-23T01:12:40.805Z,101402.56
2022-10-23T01:15:10.695Z,101404.91
2022-10-23T01:17:44.625Z,101399.19
2022-10-23T01:20:34.218Z,101393.84
2022-10-23T01:23:10.109Z,101389.44
2022-10-23T01:25:52.044Z,101394.75
2022-10-23T01:28:44.666Z,101395.13
2022-10-23T01:31:17.371Z,101394.78
2022-10-23T01:33:47.745Z,101391.00
2022-10-23T01:36:15.919Z,101397.09
2022-10-23T01:38:50.457Z,101395.97
2022-10-23T01:41:25.991Z,101396.44
2022-10-23T01:43:56.647Z,101400.28
2022-10-23T01:46:24.217Z,101388.88
2022-10-23T01:48:53.636Z,101388.91
2022-10-23T01:51:22.335Z,101377.16
2022-10-23T01:53:49.913Z,101385.16
2022-10-23T01:56:20.361Z,101385.78
2022-10-23T01:58:48.537Z,101384.31
2022-10-23T02:01:16.327Z,101393.41
2022-10-23T02:03:43.839Z,101394.19
2022-10-23T02:06:10.353Z,101391.09
2022-10-23T02:08:36.868Z,101387.28
2022-10-23T02:11:06.232Z,101385.75
2022-10-23T02:13:59.827Z,101388.78
2022-10-23T02:16:30.504Z,101381.25
2022-10-23T02:19:15.500Z,101379.66
2022-10-23T02:21:54.996Z,101382.31
2022-10-23T02:24:32.035Z,101382.72
2022-10-23T02:27:01.505Z,101375.00
2022-10-23T02:29:32.635Z,101368.16
2022-10-23T02:32:01.547Z,101356.38
2022-10-23T02:34:28.335Z,101363.69
2022-10-23T02:36:54.772Z,101360.69
2022-10-23T02:39:22.625Z,101371.72
2022-10-23T02:42:17.294Z,101363.03
2022-10-23T02:44:46.735Z,101363.78
2022-10-23T02:47:28.056Z,101350.81
2022-10-23T02:50:11.091Z,101347.78
2022-10-23T02:52:40.687Z,101345.09
2022-10-23T02:55:22.830Z,101352.78
2022-10-23T02:58:04.472Z,101341.41
2022-10-23T03:00:31.903Z,101344.84
2022-10-23T03:03:24.838Z,101340.31
2022-10-23T03:05:51.361Z,101337.19
2022-10-23T03:08:17.768Z,101330.63
2022-10-23T03:10:44.291Z,101335.59
2022-10-23T03:13:11.523Z,101339.41
2022-10-23T03:15:37.941Z,101344.06
2022-10-23T03:18:04.466Z,101333.63
2022-10-23T03:20:30.899Z,101331.81
2022-10-23T03:22:57.337Z,101325.25
2022-10-23T03:25:23.758Z,101329.03
2022-10-23T03:27:50.386Z,101319.84
2022-10-23T03:30:17.402Z,101320.56
2022-10-23T03:32:44.148Z,101318.00
2022-10-23T03:35:10.849Z,101317.63
2022-10-23T03:37:37.284Z,101313.09
2022-10-23T03:40:04.520Z,101309.34
2022-10-23T03:42:30.951Z,101306.56
2022-10-23T03:44:57.416Z,101295.59
2022-10-23T03:47:23.845Z,101308.13
2022-10-23T03:49:50.296Z,101299.78
2022-10-23T03:52:16.804Z,101302.44
2022-10-23T03:54:43.261Z,101299.31
2022-10-23T03:57:09.844Z,101297.44
2022-10-23T03:59:36.298Z,101291.41
2022-10-23T04:02:02.882Z,101287.97
2022-10-23T04:04:29.556Z,101305.09
2022-10-23T04:06:56.022Z,101319.63
2022-10-23T04:09:22.638Z,101314.59
2022-10-23T04:11:49.076Z,101307.50
2022-10-23T04:14:15.537Z,101316.22
2022-10-23T04:16:41.989Z,101322.97
2022-10-23T04:19:08.612Z,101316.19
2022-10-23T04:21:35.127Z,101294.84
2022-10-23T04:24:01.776Z,101296.94
2022-10-23T04:26:28.208Z,101297.69
2022-10-23T04:28:54.598Z,101289.31
2022-10-23T04:31:21.074Z,101292.53
2022-10-23T04:33:47.613Z,101291.75
2022-10-23T04:36:14.019Z,101285.31
2022-10-23T04:38:40.509Z,101286.50
2022-10-23T04:41:07.004Z,101295.59
2022-10-23T04:43:33.418Z,101290.25
2022-10-23T04:46:00.176Z,101278.94
2022-10-23T04:48:28.462Z,101288.34
2022-10-23T04:50:59.915Z,101287.88
2022-10-23T04:53:27.297Z,101285.69
2022-10-23T04:55:55.634Z,101289.56
2022-10-23T04:58:23.261Z,101287.31
2022-10-23T05:00:50.537Z,101283.66
2022-10-23T05:03:18.257Z,101298.06
2022-10-23T05:05:44.933Z,101302.00
2022-10-23T05:08:15.570Z,101296.38
2022-10-23T05:10:44.437Z,101292.88
2022-10-23T05:13:10.903Z,101295.78
2022-10-23T05:15:37.407Z,101294.25
2022-10-23T05:18:34.762Z,101296.25
2022-10-23T05:21:09.553Z,101299.75
2022-10-23T05:23:36.784Z,101299.69
2022-10-23T05:26:04.621Z,101292.38
2022-10-23T05:28:31.066Z,101291.25
2022-10-23T05:30:59.075Z,101287.88
2022-10-23T05:33:26.312Z,101286.78
2022-10-23T05:35:53.190Z,101275.69
2022-10-23T05:38:19.703Z,101277.56
2022-10-23T05:40:46.183Z,101278.22
2022-10-23T05:43:12.572Z,101281.97
2022-10-23T05:45:39.349Z,101261.31
2022-10-23T05:48:16.649Z,101276.88
2022-10-23T05:50:48.917Z,101271.25
2022-10-23T05:53:15.540Z,101260.16
2022-10-23T05:55:41.979Z,101244.94
2022-10-23T05:58:08.425Z,101249.03
2022-10-23T06:00:34.839Z,101248.97
2022-10-23T06:03:02.077Z,101247.41
2022-10-23T06:05:28.631Z,101247.06
2022-10-23T06:08:01.208Z,101250.88
2022-10-23T06:10:28.003Z,101237.50
2022-10-23T06:12:54.412Z,101255.06
2022-10-23T06:15:22.318Z,101244.88
2022-10-23T06:17:48.788Z,101246.03
2022-10-23T06:20:15.346Z,101246.13
2022-10-23T06:22:42.198Z,101250.03
2022-10-23T06:25:09.200Z,101242.28
2022-10-23T06:27:35.620Z,101247.63
2022-10-23T06:30:04.029Z,101249.03
2022-10-23T06:32:33.463Z,101240.19
2022-10-23T06:35:00.185Z,101237.53
2022-10-23T06:37:26.615Z,101237.50
2022-10-23T06:39:53.252Z,101244.19
2022-10-23T06:42:19.659Z,101242.19
2022-10-23T06:44:46.050Z,101245.56
2022-10-23T06:47:14.325Z,101248.59
2022-10-23T06:49:40.904Z,101240.16
2022-10-23T06:52:14.272Z,101249.19
2022-10-23T06:54:49.606Z,101244.44
2022-10-23T06:57:16.533Z,101240.47
2022-10-23T06:59:43.002Z,101243.38
2022-10-23T07:02:10.632Z,101243.66
2022-10-23T07:04:37.061Z,101238.91
2022-10-23T07:07:03.562Z,101234.63
2022-10-23T07:09:30.198Z,101239.28
2022-10-23T07:11:56.751Z,101233.78
2022-10-23T07:14:23.430Z,101232.34
2022-10-23T07:16:49.849Z,101237.53
2022-10-23T07:19:16.249Z,101234.25
2022-10-23T07:21:42.714Z,101242.19
2022-10-23T07:24:09.197Z,101237.22
2022-10-23T07:26:35.717Z,101249.41
2022-10-23T07:29:02.122Z,101251.47
2022-10-23T07:31:29.502Z,101253.47
2022-10-23T07:33:55.950Z,101249.88
2022-10-23T07:36:22.377Z,101242.66
2022-10-23T07:38:48.894Z,101253.47
2022-10-23T07:41:15.877Z,101249.06
2022-10-23T07:43:42.353Z,101246.03
2022-10-23T07:46:09.964Z,101248.00
2022-10-23T07:48:38.209Z,101244.41
2022-10-23T07:51:10.985Z,101239.91
2022-10-23T07:53:39.822Z,101244.97
2022-10-23T07:56:18.596Z,101244.97
2022-10-23T07:58:45.125Z,101242.19
2022-10-23T08:01:33.019Z,101243.09
2022-10-23T08:04:00.758Z,101238.25
2022-10-23T08:06:27.220Z,101235.91
2022-10-23T08:08:53.624Z,101225.16
2022-10-23T08:11:25.752Z,101240.63
2022-10-23T08:13:53.034Z,101233.97
2022-10-23T08:16:19.547Z,101244.31
2022-10-23T08:18:46.011Z,101235.34
2022-10-23T08:21:12.425Z,101233.97
2022-10-23T08:23:38.947Z,101235.25
2022-10-23T08:26:06.383Z,101235.91
2022-10-23T08:28:33.126Z,101229.34
2022-10-23T08:30:59.532Z,101224.44
2022-10-23T08:33:26.041Z,101215.69
2022-10-23T08:35:52.539Z,101213.75
2022-10-23T08:38:19.107Z,101216.97
2022-10-23T08:40:47.023Z,101219.31
2022-10-23T08:43:32.734Z,101217.13
2022-10-23T08:46:05.076Z,101207.53
2022-10-23T08:48:39.461Z,101203.41
2022-10-23T08:51:15.945Z,101214.84
2022-10-23T08:54:16.836Z,101219.34
2022-10-23T08:56:54.107Z,101222.56
2022-10-23T08:59:37.922Z,101212.41
2022-10-23T09:02:18.125Z,101209.94
2022-10-23T09:04:47.928Z,101205.53
2022-10-23T09:07:40.646Z,101206.00
2022-10-23T09:10:41.414Z,101199.50
2022-10-23T09:13:49.805Z,101193.19
2022-10-23T09:16:38.587Z,101189.03
2022-10-23T09:19:18.020Z,101206.72
2022-10-23T09:21:51.856Z,101196.44
2022-10-23T09:24:21.298Z,101189.84
2022-10-23T09:26:49.735Z,101175.63
2022-10-23T09:29:35.791Z,101179.09
2022-10-23T09:32:05.040Z,101185.84
2022-10-23T09:34:33.322Z,101188.69
2022-10-23T09:37:21.160Z,101195.44
2022-10-23T09:39:48.114Z,101195.03
2022-10-23T09:42:25.870Z,101180.81
2022-10-23T09:44:54.090Z,101182.47
2022-10-23T09:47:23.962Z,101179.03
2022-10-23T09:49:53.015Z,101188.31
2022-10-23T09:52:22.182Z,101191.59
2022-10-23T09:54:57.689Z,101187.56
2022-10-23T09:57:54.893Z,101178.28
2022-10-23T10:00:23.961Z,101179.03
2022-10-23T10:03:05.735Z,101177.84
2022-10-23T10:05:37.372Z,101189.34
2022-10-23T10:08:31.836Z,101186.94
2022-10-23T10:11:02.346Z,101176.94
2022-10-23T10:13:36.696Z,101169.44
2022-10-23T10:16:11.770Z,101181.13
2022-10-23T10:18:51.225Z,101172.72
2022-10-23T10:21:41.474Z,101164.94
2022-10-23T10:24:29.683Z,101151.28
2022-10-23T10:27:25.200Z,101155.94
2022-10-23T10:30:16.509Z,101161.03
2022-10-23T10:33:04.697Z,101145.44
2022-10-23T10:35:53.572Z,101134.66
2022-10-23T10:38:22.873Z,101137.00
2022-10-23T10:41:14.547Z,101133.41
2022-10-23T10:43:52.808Z,101138.78
2022-10-23T10:46:38.485Z,101129.75
2022-10-23T10:49:14.630Z,101115.59
2022-10-23T10:52:14.443Z,101124.75
2022-10-23T10:55:16.395Z,101104.72
2022-10-23T10:57:46.705Z,101106.53
2022-10-23T11:00:23.185Z,101112.31
2022-10-23T11:02:59.763Z,101107.59
2022-10-23T11:05:35.291Z,101097.72
2022-10-23T11:08:15.300Z,101099.53
2022-10-23T11:10:45.558Z,101094.13
2022-10-23T11:13:32.877Z,101091.97
2022-10-23T11:16:04.752Z,101095.75
2022-10-23T11:18:32.441Z,101096.50
2022-10-23T11:21:09.979Z,101094.06
2022-10-23T11:23:59.878Z,101090.22
2022-10-23T11:26:46.803Z,101086.03
2022-10-23T11:29:30.262Z,101081.41
2022-10-23T11:35:21.282Z,101076.19
2022-10-23T11:37:59.120Z,101075.09
2022-10-23T11:40:25.776Z,101064.66
2022-10-23T11:42:52.496Z,101053.19
2022-10-23T11:45:40.430Z,101058.94
2022-10-23T11:48:22.329Z,101053.19
2022-10-23T11:50:49.374Z,101051.03
2022-10-23T11:53:28.132Z,101045.53
2022-10-23T11:56:13.158Z,101037.78
2022-10-23T11:58:41.798Z,101026.06
2022-10-23T12:01:31.519Z,101009.41
2022-10-23T12:04:19.176Z,101007.16
2022-10-23T12:06:48.495Z,101005.66
2022-10-23T12:09:24.335Z,100999.13
2022-10-23T12:12:08.985Z,100997.41
2022-10-23T12:14:42.154Z,100987.06
2022-10-23T12:17:24.676Z,100982.06
2022-10-23T12:19:56.386Z,100968.78
2022-10-23T12:22:25.977Z,100956.50
2022-10-23T12:25:05.174Z,100947.91
2022-10-23T12:27:58.505Z,100945.59
2022-10-23T12:30:30.533Z,100944.47
2022-10-23T12:33:15.298Z,100934.66
2022-10-23T12:35:56.894Z,100937.88
2022-10-23T12:38:31.298Z,100922.19
2022-10-23T12:41:13.294Z,100913.25
2022-10-23T12:43:41.370Z,100917.34
2022-10-23T12:46:22.445Z,100911.38
2022-10-23T12:48:53.857Z,100903.16
2022-10-23T12:51:31.462Z,100890.03
2022-10-23T12:53:58.174Z,100880.81
2022-10-23T12:56:28.551Z,100878.06
2022-10-23T12:59:00.731Z,100885.00
2022-10-23T13:01:31.838Z,100874.31
2022-10-23T13:04:11.541Z,100869.22
2022-10-23T13:06:38.938Z,100866.28
2022-10-23T13:09:06.432Z,100862.41
2022-10-23T13:11:33.215Z,100861.22
2022-10-23T13:14:02.147Z,100856.16
2022-10-23T13:16:28.934Z,100842.56
2022-10-23T13:18:55.376Z,100837.59
2022-10-23T13:21:23.840Z,100851.22
2022-10-23T13:23:51.243Z,100858.78
2022-10-23T13:26:45.153Z,100855.41
2022-10-23T13:29:32.029Z,100839.47
2022-10-23T13:31:58.600Z,100834.97
2022-10-23T13:34:30.278Z,100834.03
2022-10-23T13:37:02.699Z,100831.72
2022-10-23T13:39:41.673Z,100833.78
2022-10-23T13:42:14.247Z,100835.50
2022-10-23T13:44:41.240Z,100844.25
2022-10-23T13:47:12.860Z,100827.09
2022-10-23T13:49:39.748Z,100822.44
2022-10-23T13:52:11.365Z,100814.31
2022-10-23T13:54:37.934Z,100817.25
2022-10-23T13:57:04.505Z,100804.28
2022-10-23T13:59:30.939Z,100809.44
2022-10-23T14:01:57.619Z,100796.13
2022-10-23T14:04:24.176Z,100793.34
2022-10-23T14:06:50.973Z,100789.56
2022-10-23T14:09:18.234Z,100795.50
2022-10-23T14:11:45.122Z,100796.59
2022-10-23T14:14:12.202Z,100799.22
2022-10-23T14:16:38.786Z,100788.06
2022-10-23T14:19:05.304Z,100789.28
2022-10-23T14:21:31.826Z,100777.91
2022-10-23T14:23:58.447Z,100784.28
2022-10-23T14:26:27.717Z,100780.84
2022-10-23T14:28:55.103Z,100770.25
2022-10-23T14:31:21.877Z,100775.09
2022-10-23T14:33:55.862Z,100769.69
2022-10-23T14:36:23.213Z,100771.81
2022-10-23T14:38:54.819Z,100765.25
2022-10-23T14:41:22.386Z,100758.31
2022-10-23T14:43:48.814Z,100752.19
2022-10-23T14:46:17.617Z,100726.97
2022-10-23T14:48:46.212Z,100713.28
2022-10-23T14:51:26.220Z,100700.44
2022-10-23T14:53:59.355Z,100694.16
2022-10-23T14:56:26.068Z,100689.13
2022-10-23T14:58:52.503Z,100666.47
2022-10-23T15:01:19.593Z,100651.69
2022-10-23T15:03:46.217Z,100645.09
2022-10-23T15:06:17.514Z,100630.94
2022-10-23T15:08:44.843Z,100643.44
2022-10-23T15:11:12.659Z,100636.88
2022-10-23T15:13:39.358Z,100657.72
2022-10-23T15:16:08.162Z,100658.78
2022-10-23T15:21:06.368Z,100656.47
2022-10-23T15:23:34.674Z,100656.53
2022-10-23T15:26:03.857Z,100656.81
2022-10-23T15:28:30.974Z,100648.81
2022-10-23T15:30:57.416Z,100654.88
2022-10-23T15:33:25.532Z,100643.44
2022-10-23T15:35:52.534Z,100645.09
2022-10-23T15:38:19.328Z,100651.03
2022-10-23T15:40:46.282Z,100641.94
2022-10-23T15:43:13.441Z,100653.31
2022-10-23T15:45:40.533Z,100645.69
2022-10-23T15:48:07.589Z,100649.13
2022-10-23T15:50:35.188Z,100662.53
2022-10-23T15:53:05.004Z,100654.09
2022-10-23T15:55:31.734Z,100646.47
2022-10-23T15:58:01.920Z,100641.81
2022-10-23T16:00:28.524Z,100629.31
2022-10-23T16:02:55.005Z,100623.78
2022-10-23T16:05:21.582Z,100625.28
2022-10-23T16:07:48.041Z,100624.22
2022-10-23T16:10:14.444Z,100612.88
2022-10-23T16:12:40.899Z,100611.28
2022-10-23T16:15:08.244Z,100600.31
2022-10-23T16:17:34.847Z,100590.22
2022-10-23T16:20:01.299Z,100594.56
2022-10-23T16:22:28.196Z,100595.59
2022-10-23T16:24:54.736Z,100590.28
2022-10-23T16:27:21.247Z,100596.44
2022-10-23T16:29:47.705Z,100602.56
2022-10-23T16:32:14.123Z,100580.16
2022-10-23T16:34:40.543Z,100576.53
2022-10-23T16:37:07.038Z,100567.97
2022-10-23T16:39:33.477Z,100557.78
2022-10-23T16:41:59.887Z,100554.13
2022-10-23T16:44:26.402Z,100552.38
2022-10-23T16:46:52.827Z,100539.66
2022-10-23T16:49:19.277Z,100542.06
2022-10-23T16:51:45.738Z,100535.44
2022-10-23T16:54:12.317Z,100536.00
2022-10-23T16:56:38.781Z,100536.38
2022-10-23T16:59:05.571Z,100539.19
2022-10-23T17:01:33.240Z,100524.47
2022-10-23T17:04:00.024Z,100512.34
2022-10-23T17:06:30.755Z,100517.81
2022-10-23T17:08:58.254Z,100514.00
2022-10-23T17:11:32.376Z,100523.56
2022-10-23T17:14:04.889Z,100518.34
2022-10-23T17:16:35.590Z,100524.13
2022-10-23T17:19:08.411Z,100523.94
2022-10-23T17:21:39.810Z,100529.44
2022-10-23T17:24:07.045Z,100530.84
2022-10-23T17:26:34.017Z,100535.00
2022-10-23T17:29:01.994Z,100535.47
2022-10-23T17:31:33.620Z,100533.06
2022-10-23T17:34:03.963Z,100527.91
2022-10-23T17:36:32.803Z,100525.53
2022-10-23T17:38:59.403Z,100531.28
2022-10-23T17:41:26.319Z,100531.59
2022-10-23T17:43:56.483Z,100530.91
2022-10-23T17:46:24.007Z,100533.97
2022-10-23T17:48:50.518Z,100536.75
2022-10-23T17:51:22.582Z,100543.91
2022-10-23T17:53:50.965Z,100559.63
2022-10-23T17:56:22.363Z,100580.66
2022-10-23T17:58:49.992Z,100566.88
2022-10-23T18:01:19.415Z,100572.25
2022-10-23T18:03:49.360Z,100573.00
2022-10-23T18:06:24.545Z,100580.66
2022-10-23T18:08:54.674Z,100558.31
2022-10-23T18:11:24.033Z,100560.38
2022-10-23T18:13:51.337Z,100559.53
2022-10-23T18:16:18.452Z,100569.66
2022-10-23T18:18:48.295Z,100558.13
2022-10-23T18:21:15.883Z,100539.09
2022-10-23T18:23:42.684Z,100550.53
2022-10-23T18:26:22.975Z,100530.53
2022-10-23T18:28:51.658Z,100533.41
2022-10-23T18:31:18.827Z,100530.41
2022-10-23T18:33:45.663Z,100528.47
2022-10-23T18:36:19.197Z,100534.16
2022-10-23T18:38:45.807Z,100535.47
2022-10-23T18:41:12.290Z,100539.16
2022-10-23T18:43:43.666Z,100540.44
2022-10-23T18:46:14.023Z,100548.06
2022-10-23T18:48:40.936Z,100539.81
2022-10-23T18:51:24.171Z,100550.78
2022-10-23T18:53:50.903Z,100548.94
2022-10-23T18:56:22.822Z,100559.09
2022-10-23T18:58:50.951Z,100556.19
2022-10-23T19:01:19.056Z,100556.47
2022-10-23T19:03:46.233Z,100551.97
2022-10-23T19:06:13.418Z,100550.13
2022-10-23T19:08:41.487Z,100548.66
2022-10-23T19:11:08.863Z,100545.38
2022-10-23T19:13:39.671Z,100544.75
2022-10-23T19:16:22.472Z,100550.03
2022-10-23T19:18:51.659Z,100531.50
2022-10-23T19:21:19.783Z,100521.69
2022-10-23T19:23:46.515Z,100509.50
2022-10-23T19:26:13.342Z,100497.97
2022-10-23T19:28:42.347Z,100482.44
2022-10-23T19:31:09.984Z,100446.56
2022-10-23T19:33:38.451Z,100424.22
2022-10-23T19:36:07.908Z,100406.78
2022-10-23T19:38:36.758Z,100429.38
2022-10-23T19:41:03.882Z,100384.56
2022-10-23T19:43:30.539Z,100409.69
2022-10-23T19:45:59.355Z,100401.69
2022-10-23T19:48:25.788Z,100416.06
2022-10-23T19:50:52.226Z,100402.78
2022-10-23T19:53:18.659Z,100397.25
2022-10-23T19:55:45.118Z,100426.41
2022-10-23T19:58:11.773Z,100438.25
2022-10-23T20:00:38.228Z,100426.84
2022-10-23T20:03:04.907Z,100433.28
2022-10-23T20:05:31.560Z,100413.22
2022-10-23T20:07:58.069Z,100408.22
2022-10-23T20:10:25.634Z,100399.56
2022-10-23T20:12:56.668Z,100394.41
2022-10-23T20:15:38.918Z,100403.84
2022-10-23T20:18:05.628Z,100411.84
2022-10-23T20:20:32.063Z,100408.56
2022-10-23T20:22:58.694Z,100402.25
2022-10-23T20:25:26.901Z,100397.06
2022-10-23T20:27:53.305Z,100385.16
2022-10-23T20:30:19.780Z,100395.47
2022-10-23T20:32:46.454Z,100389.81
2022-10-23T20:35:13.165Z,100387.13
2022-10-23T20:37:39.618Z,100382.19
2022-10-23T20:40:06.641Z,100405.03
2022-10-23T20:42:33.046Z,100402.53
2022-10-23T20:44:59.442Z,100396.22
2022-10-23T20:47:25.838Z,100399.88
2022-10-23T20:49:52.266Z,100415.06
2022-10-23T20:52:18.891Z,100404.72
2022-10-23T20:54:45.273Z,100421.41
2022-10-23T20:57:11.716Z,100431.69
2022-10-23T20:59:38.227Z,100436.41
2022-10-23T21:02:04.796Z,100435.59
2022-10-23T21:04:31.395Z,100442.94
2022-10-23T21:07:14.107Z,100436.41
2022-10-23T21:09:40.722Z,100458.06
2022-10-23T21:12:07.852Z,100452.97
2022-10-23T21:14:34.782Z,100459.94
2022-10-23T21:17:01.211Z,100451.28
2022-10-23T21:19:27.709Z,100461.16
2022-10-23T21:21:54.740Z,100465.59
2022-10-23T21:24:21.123Z,100461.31
2022-10-23T21:26:47.723Z,100458.91
2022-10-23T21:29:18.887Z,100467.00
2022-10-23T21:31:45.820Z,100478.06
2022-10-23T21:34:12.363Z,100473.50
2022-10-23T21:36:48.500Z,100483.47
2022-10-23T21:39:25.376Z,100475.44
2022-10-23T21:41:51.837Z,100476.19
2022-10-23T21:44:18.347Z,100466.72
2022-10-23T21:46:44.844Z,100456.97
2022-10-23T21:49:11.853Z,100451.88
2022-10-23T21:51:38.567Z,100450.38
2022-10-23T21:54:06.813Z,100465.41
2022-10-23T21:56:36.781Z,100464.19
2022-10-23T21:59:04.116Z,100475.97
2022-10-23T22:01:30.688Z,100479.31
2022-10-23T22:03:57.258Z,100476.72
2022-10-23T22:06:26.683Z,100480.81
2022-10-23T22:08:54.166Z,100482.81
2022-10-23T22:11:20.684Z,100476.31
2022-10-23T22:13:47.142Z,100476.31
2022-10-23T22:16:14.523Z,100477.94
2022-10-23T22:18:41.157Z,100470.50
2022-10-23T22:21:15.659Z,100479.44
2022-10-23T22:23:42.415Z,100473.19
2022-10-23T22:26:18.796Z,100468.16
2022-10-23T22:28:45.367Z,100460.19
2022-10-23T22:31:16.962Z,100458.00
2022-10-23T22:33:43.802Z,100456.94
2022-10-23T22:36:10.427Z,100452.19
2022-10-23T22:38:37.158Z,100455.16
2022-10-23T22:41:04.615Z,100432.13
2022-10-23T22:43:31.134Z,100449.03
2022-10-23T22:46:18.072Z,100455.34
2022-10-23T22:48:45.315Z,100454.25
2022-10-23T22:51:13.727Z,100453.34
2022-10-23T22:53:40.133Z,100458.56
2022-10-23T22:56:12.937Z,100457.72
2022-10-23T22:58:39.545Z,100465.59
2022-10-23T23:01:14.726Z,100446.75
2022-10-23T23:03:41.270Z,100438.41
2022-10-23T23:06:08.562Z,100463.19
2022-10-23T23:08:35.807Z,100471.00
2022-10-23T23:11:02.280Z,100464.09
2022-10-23T23:13:28.979Z,100457.06
2022-10-23T23:15:55.754Z,100450.84
2022-10-23T23:18:23.521Z,100459.28
2022-10-23T23:20:50.052Z,100454.28
2022-10-23T23:23:16.577Z,100455.78
2022-10-23T23:25:44.681Z,100459.28
2022-10-23T23:28:12.531Z,100453.44
2022-10-23T23:30:40.464Z,100465.25
2022-10-23T23:33:07.606Z,100449.09
2022-10-23T23:35:33.995Z,100455.78
2022-10-23T23:38:00.990Z,100456.88
2022-10-23T23:40:28.657Z,100451.22
2022-10-23T23:42:55.319Z,100440.16
2022-10-23T23:45:21.730Z,100448.59
2022-10-23T23:47:49.281Z,100453.91
2022-10-23T23:50:16.109Z,100453.63
2022-10-23T23:52:43.195Z,100450.91
2022-10-23T23:55:09.750Z,100461.13
2022-10-23T23:57:36.247Z,100458.53
